Portada
METAR-TAF:

METAR-TAF

Aeroports :

Udaipur, Índia

latitud: 24-37-04N, longitud: 73-53-46E, altitud: 513 m

Observació

L'informe es va fer fa 4 hores i 29 minuts, a les 09:30 UTC
Vent 7 kt del Nord-Oest
Temperatura 41°C
Humitat 11%
Pressió 1007 hPa
Visibilitat: 6000 m

METAR: VAUD 250930Z 31007KT 6000 NSC 41/05 Q1007 NOSIG

Hora: 19:29 (13:59 UTC)

Pronòstic

L'informe es va fer fa 5 hores i 59 minuts, a les 08:00 UTC
Pronòstic vàlid del 25 a les 09 UTC al 25 a les 18 UTC
Vent 13 kt del Oest
Visibilitat: 6000 m
Evolucionant progressivament
l' 25 a les 13 UTC al 25 a les 15 UTC
Vent 14 kt del Oest
Visibilitat: 5000 m
calitja

TAF: VAUD 250800Z 2509/2518 27013KT 6000 NSC BECMG 2513/2515 27014KT 5000 HZ

Observacions i pronòstics meteorològics de més de 4000 aeroports (METAR i TAF).

Les estacions disponibles són els punts grocs i vermells al mapa.

Posi el ratolí al punt desitjat per veure el nom de l'estació.

Feu clic per veure les observacions i els pronòstics meteorològics.

Per canviar el mapa: feu clic els botons verds amb una creu de color negre per apropar; al botó verd amb un guió per allunyar la imatge; o en les fletxes verdes per a mapes adjacents.


METAR-TAF: